Time;durP1;ratioP1;P1;durP2;ratioP2;P2;SDS_P1;SDS_P2;PMS_P1;PMS_P2;Temp;Humidity;BMP_temperature;BMP_pressure;BME280_temperature;BME280_humidity;BME280_pressure;Samples;Min_cycle;Max_cycle;Signal;HPM_P1;HPM_P2
2021/07/20 00:02:50;;;;;;;5.27;2.90;;;;;;;17.18;59.03;101884.84;6160676;28;20242;-50
2021/07/20 00:06:12;;;;;;;4.80;2.47;;;;;;;17.20;58.62;101887.47;6169778;28;20235;-50
2021/07/20 00:09:33;;;;;;;4.17;3.00;;;;;;;17.12;59.02;101883.19;6161550;28;20858;-52
2021/07/20 00:12:54;;;;;;;4.60;3.20;;;;;;;17.17;58.72;101887.50;6167412;28;20238;-52
2021/07/20 00:16:16;;;;;;;4.67;3.33;;;;;;;17.18;58.54;101884.00;6166363;28;20653;-48
2021/07/20 00:19:38;;;;;;;4.30;3.20;;;;;;;17.11;58.76;101886.72;6156846;28;20250;-50
2021/07/20 00:22:59;;;;;;;5.63;3.90;;;;;;;17.12;58.91;101891.09;6147774;28;20230;-48
2021/07/20 00:26:20;;;;;;;4.00;2.80;;;;;;;17.25;58.30;101883.84;6159351;28;20561;-49
2021/07/20 00:29:42;;;;;;;6.93;3.80;;;;;;;16.90;59.60;101885.38;6168833;28;20261;-49
2021/07/20 00:33:03;;;;;;;3.30;2.80;;;;;;;16.69;60.16;101894.50;6163432;28;20667;-49
2021/07/20 00:36:25;;;;;;;3.80;3.17;;;;;;;16.67;60.48;101891.03;6161413;28;20234;-50
2021/07/20 00:39:46;;;;;;;5.50;3.55;;;;;;;16.71;60.18;101887.44;6137407;28;20612;-47
2021/07/20 00:43:07;;;;;;;6.28;3.33;;;;;;;16.81;60.10;101888.16;6165616;28;20226;-49
2021/07/20 00:46:28;;;;;;;4.03;3.22;;;;;;;16.82;59.86;101886.41;6170519;28;20251;-48
2021/07/20 00:49:50;;;;;;;10.65;4.28;;;;;;;16.83;59.95;101889.00;6156104;28;20239;-51
2021/07/20 00:53:14;;;;;;;3.60;2.70;;;;;;;16.84;60.23;101887.25;6165612;28;20227;-52
2021/07/20 00:56:40;;;;;;;8.13;3.25;;;;;;;16.94;59.97;101891.44;6157213;28;20239;-49
2021/07/20 01:00:04;;;;;;;4.15;3.13;;;;;;;17.05;59.38;101878.94;6160124;28;20242;-48
2021/07/20 01:03:26;;;;;;;4.77;3.67;;;;;;;16.92;60.10;101885.31;6158876;28;20512;-49
2021/07/20 01:06:49;;;;;;;4.15;3.20;;;;;;;16.80;60.41;101883.75;6160183;28;20242;-51
2021/07/20 01:10:13;;;;;;;4.40;3.33;;;;;;;16.88;60.33;101883.66;6154417;28;20781;-47
2021/07/20 01:13:35;;;;;;;3.80;2.73;;;;;;;16.77;60.52;101877.69;6156794;28;20227;-52
2021/07/20 01:16:58;;;;;;;7.43;3.27;;;;;;;16.79;60.57;101881.16;6178480;28;20263;-51
2021/07/20 01:20:22;;;;;;;5.17;3.27;;;;;;;16.89;60.55;101869.63;6162415;28;20234;-48
2021/07/20 01:23:50;;;;;;;6.07;3.70;;;;;;;16.74;60.86;101870.72;6161010;28;20642;-48
2021/07/20 01:27:14;;;;;;;3.10;2.80;;;;;;;16.50;61.17;101872.03;6165092;28;20249;-50
2021/07/20 01:30:42;;;;;;;6.20;3.87;;;;;;;16.38;61.81;101864.34;6152731;28;20242;-51
2021/07/20 01:34:09;;;;;;;4.93;4.30;;;;;;;16.73;60.75;101869.00;6157227;28;20234;-49
2021/07/20 01:37:33;;;;;;;3.70;3.27;;;;;;;16.80;60.78;101875.00;6160081;28;20227;-47
2021/07/20 01:41:01;;;;;;;4.43;3.50;;;;;;;16.53;61.48;101879.84;6155235;28;20226;-48
2021/07/20 01:44:26;;;;;;;7.37;4.00;;;;;;;16.70;60.79;101876.94;6162685;28;20321;-50
2021/07/20 01:47:49;;;;;;;4.17;3.73;;;;;;;16.54;61.36;101882.47;6154160;28;20774;-49
2021/07/20 01:51:13;;;;;;;4.93;3.67;;;;;;;16.68;61.16;101876.97;6157706;28;20238;-47
2021/07/20 01:54:38;;;;;;;7.67;3.60;;;;;;;16.89;60.30;101880.16;6148651;28;20245;-53
2021/07/20 01:58:01;;;;;;;4.78;3.42;;;;;;;16.71;60.80;101884.81;6150989;28;20258;-47
2021/07/20 02:01:30;;;;;;;5.40;3.27;;;;;;;16.55;61.66;101883.31;6157231;28;20246;-48
2021/07/20 02:08:37;;;;;;;5.43;3.77;;;;;;;16.48;61.63;101877.31;6157712;28;20226;-50
2021/07/20 02:12:11;;;;;;;6.33;3.20;;;;;;;16.76;61.22;101874.19;6155589;28;20502;-51
2021/07/20 02:15:55;;;;;;;5.70;3.67;;;;;;;16.59;61.55;101877.13;6162201;28;20235;-49
2021/07/20 02:19:28;;;;;;;7.87;3.20;;;;;;;16.78;60.87;101875.03;6158564;28;20227;-47
2021/07/20 02:23:11;;;;;;;5.17;3.30;;;;;;;16.83;60.79;101877.63;6149818;28;20628;-52
2021/07/20 02:26:33;;;;;;;4.40;3.50;;;;;;;16.83;60.68;101875.00;6155271;28;20226;-47
2021/07/20 02:29:56;;;;;;;5.10;3.57;;;;;;;16.79;60.61;101886.41;6155688;28;20274;-53
2021/07/20 02:33:20;;;;;;;6.47;3.80;;;;;;;16.76;61.04;101878.59;6148733;28;20235;-47
2021/07/20 02:36:42;;;;;;;5.73;4.13;;;;;;;16.42;61.85;101871.28;6145269;28;20234;-50
2021/07/20 02:40:06;;;;;;;6.33;4.80;;;;;;;16.20;62.75;101871.63;6143518;28;20293;-47
2021/07/20 02:43:27;;;;;;;6.43;4.70;;;;;;;16.46;61.79;101867.69;6151830;28;20270;-50
2021/07/20 02:46:49;;;;;;;5.73;4.10;;;;;;;16.36;62.07;101861.72;6162308;28;20238;-47
2021/07/20 02:50:14;;;;;;;4.07;3.00;;;;;;;16.41;62.18;101869.56;6148048;28;20235;-48
2021/07/20 02:53:40;;;;;;;9.53;3.47;;;;;;;16.34;62.25;101874.03;6146254;28;20226;-52
2021/07/20 02:57:06;;;;;;;5.43;4.30;;;;;;;16.36;61.89;101869.59;6154429;28;20242;-48
2021/07/20 03:00:28;;;;;;;8.25;4.57;;;;;;;16.32;62.23;101868.81;6156406;28;20649;-48
2021/07/20 03:03:53;;;;;;;5.73;4.03;;;;;;;16.41;62.03;101865.16;6149752;28;20238;-49
2021/07/20 03:07:26;;;;;;;5.97;4.03;;;;;;;16.34;62.29;101872.28;6171286;28;20427;-47
2021/07/20 03:10:49;;;;;;;13.03;11.73;;;;;;;16.09;63.36;101881.44;6156003;28;20274;-53
2021/07/20 03:14:14;;;;;;;8.73;7.80;;;;;;;16.26;62.49;101874.16;6143926;28;20474;-48
2021/07/20 03:17:47;;;;;;;13.70;8.30;;;;;;;16.52;61.97;101878.13;6151589;28;20527;-51
2021/07/20 03:21:09;;;;;;;7.60;5.03;;;;;;;16.31;62.52;101874.09;6174113;28;20326;-49
2021/07/20 03:24:35;;;;;;;6.17;4.87;;;;;;;16.45;62.24;101887.00;6157262;28;20231;-53
2021/07/20 03:28:00;;;;;;;7.67;5.03;;;;;;;16.28;62.48;101885.50;6158402;28;20876;-53
2021/07/20 03:31:24;;;;;;;6.37;4.47;;;;;;;16.27;62.36;101889.03;6158092;28;20234;-49
2021/07/20 03:34:50;;;;;;;6.80;4.70;;;;;;;16.58;61.08;101899.06;6163905;28;20843;-51
2021/07/20 03:38:13;;;;;;;5.80;5.20;;;;;;;16.52;61.49;101893.91;6160667;28;20242;-47
2021/07/20 03:41:41;;;;;;;8.97;6.83;;;;;;;16.31;62.22;101885.47;6157735;28;20231;-49
2021/07/20 03:45:02;;;;;;;11.17;9.63;;;;;;;16.62;61.36;101889.38;6156537;28;20388;-48
2021/07/20 03:48:24;;;;;;;16.47;9.73;;;;;;;16.49;61.72;101889.56;6155642;28;20238;-47
2021/07/20 03:51:54;;;;;;;11.50;6.33;;;;;;;16.43;62.10;101894.91;6151646;28;20230;-50
2021/07/20 03:55:18;;;;;;;5.53;4.77;;;;;;;16.51;61.55;101893.03;6156909;28;20242;-53
2021/07/20 03:58:41;;;;;;;10.57;9.70;;;;;;;16.37;62.05;101892.38;6154847;28;20238;-50
2021/07/20 04:02:06;;;;;;;7.37;4.07;;;;;;;16.01;63.10;101897.31;6157422;28;20238;-52
2021/07/20 04:05:29;;;;;;;10.13;4.70;;;;;;;16.32;62.04;101912.63;6156546;28;20520;-52
2021/07/20 04:08:52;;;;;;;14.70;7.27;;;;;;;16.51;61.70;101908.78;6157130;28;20231;-47
2021/07/20 04:12:14;;;;;;;11.23;8.70;;;;;;;16.66;61.19;101910.31;6153217;28;20226;-48
2021/07/20 04:16:02;;;;;;;12.60;6.83;;;;;;;16.72;60.81;101906.72;6161459;28;20231;-53
2021/07/20 04:19:24;;;;;;;9.83;5.20;;;;;;;16.67;61.04;101909.44;6158845;28;20518;-49
2021/07/20 04:23:03;;;;;;;10.73;5.63;;;;;;;16.59;61.13;101911.31;6154946;28;20235;-46
2021/07/20 04:26:32;;;;;;;10.37;5.43;;;;;;;16.78;60.43;101916.25;6152049;28;20244;-53
2021/07/20 04:29:54;;;;;;;4.43;3.78;;;;;;;17.02;60.00;101912.34;6157559;28;20246;-48
2021/07/20 04:33:24;;;;;;;6.40;3.97;;;;;;;16.88;59.83;101913.44;6164234;28;20238;-53
2021/07/20 04:37:08;;;;;;;10.13;8.60;;;;;;;17.20;59.21;101914.63;6153410;28;20250;-51
2021/07/20 04:40:34;;;;;;;11.10;9.20;;;;;;;17.24;59.24;101913.69;6156339;28;20282;-48
2021/07/20 04:43:55;;;;;;;4.67;4.20;;;;;;;17.16;58.82;101923.50;6162573;28;20259;-50
2021/07/20 04:47:38;;;;;;;6.97;4.10;;;;;;;17.14;58.35;101920.03;6164524;28;20957;-48
2021/07/20 04:51:15;;;;;;;8.07;6.13;;;;;;;16.89;59.47;101927.50;6157781;28;20242;-52
2021/07/20 04:54:36;;;;;;;4.63;4.20;;;;;;;17.06;59.02;101935.06;6118498;28;20227;-49
2021/07/20 04:58:01;;;;;;;6.60;5.80;;;;;;;17.07;59.12;101940.31;6163620;28;20238;-52
2021/07/20 05:01:24;;;;;;;6.20;3.87;;;;;;;17.29;58.67;101942.53;6160112;28;20238;-51
2021/07/20 05:04:48;;;;;;;4.80;3.57;;;;;;;17.33;58.43;101946.84;6160685;28;20235;-50
2021/07/20 05:08:16;;;;;;;4.80;3.80;;;;;;;17.19;58.52;101940.97;6142823;28;20227;-49
2021/07/20 05:11:43;;;;;;;5.47;3.63;;;;;;;17.26;58.40;101946.09;6154595;28;20318;-51
2021/07/20 05:15:08;;;;;;;7.63;4.43;;;;;;;17.28;58.72;101946.09;6156984;28;20230;-53
2021/07/20 05:18:34;;;;;;;4.70;3.33;;;;;;;17.42;58.44;101938.78;6148297;28;20231;-53
2021/07/20 05:22:01;;;;;;;5.57;4.20;;;;;;;17.07;58.95;101940.31;6156875;28;20234;-52
2021/07/20 05:25:35;;;;;;;6.53;3.50;;;;;;;17.25;57.99;101943.50;6164101;28;20839;-51
2021/07/20 05:28:59;;;;;;;8.37;4.40;;;;;;;17.32;58.25;101945.13;6160424;28;20235;-51
2021/07/20 05:32:24;;;;;;;7.00;3.33;;;;;;;17.57;57.28;101940.25;6160514;28;20226;-48
2021/07/20 05:35:51;;;;;;;6.33;3.50;;;;;;;17.72;56.62;101944.31;6159821;28;20317;-52
2021/07/20 05:39:13;;;;;;;3.63;3.10;;;;;;;18.13;56.57;101933.81;6176430;28;20632;-58
2021/07/20 05:42:40;;;;;;;3.70;2.97;;;;;;;18.51;54.11;101935.53;6158250;28;20231;-58
2021/07/20 05:46:04;;;;;;;4.72;3.13;;;;;;;18.10;55.09;101940.00;6159771;28;20750;-60
2021/07/20 05:49:27;;;;;;;10.00;3.67;;;;;;;18.45;54.10;101938.31;6149030;28;20238;-60
2021/07/20 05:52:51;;;;;;;4.53;3.05;;;;;;;18.70;53.67;101944.72;6147121;28;20226;-61
2021/07/20 05:56:13;;;;;;;6.95;3.50;;;;;;;18.91;53.17;101941.63;6160515;28;20230;-62
2021/07/20 05:59:44;;;;;;;5.82;3.38;;;;;;;18.29;54.32;101936.03;6172973;28;20234;-52
2021/07/20 06:03:16;;;;;;;9.65;4.57;;;;;;;18.75;52.54;101938.47;6150178;28;20598;-51
2021/07/20 06:06:37;;;;;;;71.65;14.77;;;;;;;18.86;53.02;101933.81;6160719;28;20266;-47
2021/07/20 06:09:59;;;;;;;13.07;4.00;;;;;;;18.56;53.24;101936.28;6156281;28;20265;-51
2021/07/20 06:13:21;;;;;;;6.45;3.50;;;;;;;18.59;53.54;101930.94;6155743;28;20283;-49
2021/07/20 06:16:44;;;;;;;3.88;3.08;;;;;;;18.63;53.09;101929.97;6154723;28;20239;-51
2021/07/20 06:20:08;;;;;;;6.07;4.35;;;;;;;18.73;53.61;101932.34;6150339;28;20230;-51
2021/07/20 06:23:36;;;;;;;6.93;3.47;;;;;;;18.84;52.84;101935.63;6153529;28;20242;-50
2021/07/20 06:26:58;;;;;;;4.95;2.92;;;;;;;18.68;53.36;101938.59;6141714;28;20254;-48
2021/07/20 06:30:20;;;;;;;8.70;3.33;;;;;;;18.73;53.11;101940.25;6154706;28;20264;-50
2021/07/20 06:33:44;;;;;;;3.42;2.60;;;;;;;18.80;53.01;101937.47;6144590;28;20316;-53
2021/07/20 06:37:06;;;;;;;3.45;3.15;;;;;;;19.03;52.16;101938.63;6153169;28;20225;-52
2021/07/20 06:40:27;;;;;;;7.78;4.25;;;;;;;19.18;51.93;101937.38;6154540;28;20230;-48
2021/07/20 06:43:49;;;;;;;5.03;3.35;;;;;;;18.84;52.61;101933.88;6157235;28;20235;-50
2021/07/20 06:47:16;;;;;;;7.43;3.58;;;;;;;19.24;51.65;101939.84;6158058;28;20228;-52
2021/07/20 06:50:38;;;;;;;3.90;3.50;;;;;;;19.19;51.81;101945.25;6164038;28;20764;-51
2021/07/20 06:53:59;;;;;;;4.13;3.10;;;;;;;19.30;51.11;101944.09;6151937;28;20553;-53
2021/07/20 06:57:24;;;;;;;4.22;3.83;;;;;;;19.53;50.14;101943.44;6152908;28;20250;-53
2021/07/20 07:00:48;;;;;;;4.90;3.75;;;;;;;19.82;50.11;101946.13;6144576;28;20607;-52
2021/07/20 07:04:14;;;;;;;7.82;3.90;;;;;;;19.78;49.26;101944.47;6156343;28;20257;-52
2021/07/20 07:07:38;;;;;;;4.57;3.78;;;;;;;19.51;49.72;101950.56;6154477;28;20230;-53
2021/07/20 07:11:00;;;;;;;5.03;4.32;;;;;;;19.25;49.97;101953.00;6149400;28;20649;-51
2021/07/20 07:14:23;;;;;;;7.22;4.20;;;;;;;19.12;50.55;101956.03;6146609;28;20246;-51
2021/07/20 07:17:47;;;;;;;5.63;3.92;;;;;;;19.29;50.37;101951.16;6149300;28;20613;-49
2021/07/20 07:21:09;;;;;;;6.45;4.72;;;;;;;20.05;48.79;101944.56;6151920;28;20231;-53
2021/07/20 07:24:31;;;;;;;6.10;3.85;;;;;;;20.23;48.08;101949.25;6154739;28;20239;-50
2021/07/20 07:27:54;;;;;;;6.43;4.32;;;;;;;20.56;47.75;101956.19;6149593;28;20231;-51
2021/07/20 07:31:16;;;;;;;6.68;4.32;;;;;;;20.85;47.20;101953.44;6150257;28;20231;-49
2021/07/20 07:34:37;;;;;;;7.45;6.53;;;;;;;19.93;47.91;101953.75;6156145;28;20330;-54
2021/07/20 07:38:00;;;;;;;9.43;7.45;;;;;;;19.90;47.72;101959.09;6153134;28;20318;-54
2021/07/20 07:41:24;;;;;;;8.40;6.82;;;;;;;19.85;47.85;101956.63;6154175;28;20226;-53
2021/07/20 07:44:47;;;;;;;7.97;6.38;;;;;;;19.77;47.62;101963.88;6154692;28;20581;-53
2021/07/20 07:48:08;;;;;;;9.02;6.20;;;;;;;20.26;46.92;101959.75;6154776;28;20234;-51
2021/07/20 07:51:30;;;;;;;6.22;5.68;;;;;;;20.50;46.20;101954.59;6155043;28;20226;-48
2021/07/20 07:54:51;;;;;;;7.35;6.05;;;;;;;20.49;46.42;101955.53;6150964;28;21666;-52
2021/07/20 07:58:15;;;;;;;7.60;5.40;;;;;;;20.24;47.27;101948.38;6154049;28;20231;-49
2021/07/20 08:01:43;;;;;;;5.85;5.35;;;;;;;20.62;46.44;101953.34;6150623;28;23167;-52
2021/07/20 08:05:07;;;;;;;5.53;4.97;;;;;;;20.85;46.25;101949.94;6158604;28;20235;-51
2021/07/20 08:08:29;;;;;;;6.07;5.47;;;;;;;20.56;46.19;101950.88;6154100;28;20255;-49
2021/07/20 08:11:51;;;;;;;6.68;5.97;;;;;;;20.89;45.60;101945.41;6154165;28;20296;-53
2021/07/20 08:15:15;;;;;;;6.22;5.63;;;;;;;20.66;45.56;101957.63;6149195;28;20871;-48
2021/07/20 08:18:36;;;;;;;6.93;5.63;;;;;;;20.95;44.58;101955.78;6155361;28;20231;-55
2021/07/20 08:21:59;;;;;;;6.53;5.93;;;;;;;21.34;44.58;101953.50;6152641;28;20258;-52
2021/07/20 08:25:27;;;;;;;7.22;5.88;;;;;;;20.87;45.63;101963.97;6150155;28;20267;-49
2021/07/20 08:28:54;;;;;;;7.43;5.15;;;;;;;20.31;45.54;101948.16;6153360;28;20219;-50
2021/07/20 08:32:19;;;;;;;7.50;6.38;;;;;;;20.84;44.60;101950.88;6151928;28;20234;-53
2021/07/20 08:35:42;;;;;;;7.82;6.03;;;;;;;21.21;43.73;101953.09;6156492;28;20246;-50
2021/07/20 08:39:05;;;;;;;7.32;6.07;;;;;;;21.50;43.41;101947.66;6153030;28;20234;-53
2021/07/20 08:42:39;;;;;;;7.47;5.90;;;;;;;21.67;42.60;101950.53;6157861;28;20243;-47
2021/07/20 08:46:14;;;;;;;7.63;6.50;;;;;;;22.18;41.53;101949.47;6158511;28;20238;-52
2021/07/20 08:50:06;;;;;;;9.43;6.43;;;;;;;21.82;42.28;101965.03;6156038;28;20230;-54
2021/07/20 08:53:34;;;;;;;6.60;5.43;;;;;;;21.17;44.04;101951.47;6158766;28;20591;-51
2021/07/20 08:56:59;;;;;;;8.40;6.32;;;;;;;21.53;43.22;101952.88;6158035;28;20670;-50
2021/07/20 09:00:23;;;;;;;6.80;6.20;;;;;;;21.88;42.88;101961.28;6162494;28;20258;-51
2021/07/20 09:03:53;;;;;;;6.00;5.40;;;;;;;21.33;43.23;101958.88;6158038;28;20737;-52
2021/07/20 09:07:22;;;;;;;7.90;5.63;;;;;;;21.39;43.20;101959.50;6159152;28;20234;-54
2021/07/20 09:10:48;;;;;;;6.93;5.75;;;;;;;21.62;42.52;101957.84;6153423;28;20230;-50
2021/07/20 09:14:18;;;;;;;6.93;5.00;;;;;;;21.72;42.70;101961.00;6161021;28;20243;-52
2021/07/20 09:17:45;;;;;;;7.63;5.72;;;;;;;21.79;43.07;101963.34;6151254;28;20234;-54
2021/07/20 09:21:10;;;;;;;7.63;5.72;;;;;;;22.00;43.01;101966.09;6159144;28;20230;-54
2021/07/20 09:24:38;;;;;;;10.75;9.73;;;;;;;21.99;41.96;101967.03;6159396;28;20620;-52
2021/07/20 09:28:03;;;;;;;9.43;8.48;;;;;;;22.19;41.74;101964.44;6153131;28;20238;-52
2021/07/20 09:31:33;;;;;;;8.80;6.40;;;;;;;22.13;41.67;101972.66;6156796;28;20250;-52
2021/07/20 09:35:07;;;;;;;7.38;6.18;;;;;;;22.15;41.88;101957.53;6155992;28;20230;-51
2021/07/20 09:38:43;;;;;;;7.40;6.25;;;;;;;22.21;41.01;101965.25;6153565;28;20227;-51
2021/07/20 09:42:15;;;;;;;9.32;6.15;;;;;;;22.37;40.57;101968.19;6153075;28;20863;-53
2021/07/20 09:45:40;;;;;;;7.30;5.93;;;;;;;22.28;40.54;101979.19;6155909;28;20266;-53
2021/07/20 09:49:05;;;;;;;6.53;5.32;;;;;;;22.72;44.22;101968.53;6154990;28;20230;-54
2021/07/20 09:52:43;;;;;;;9.07;5.75;;;;;;;22.94;39.49;101972.94;6158556;28;20619;-47
2021/07/20 09:56:25;;;;;;;6.10;5.20;;;;;;;23.36;40.03;101969.34;6143927;28;20321;-51
2021/07/20 10:00:01;;;;;;;7.80;5.72;;;;;;;22.51;40.43;101962.31;6142449;28;20242;-62
2021/07/20 10:03:29;;;;;;;6.20;5.60;;;;;;;23.08;39.85;101965.25;6152973;28;20254;-62
2021/07/20 10:06:56;;;;;;;6.20;5.07;;;;;;;24.23;38.28;101963.59;6153603;28;20234;-61
2021/07/20 10:10:24;;;;;;;6.00;5.40;;;;;;;23.73;37.95;101955.25;6154176;28;20628;-62
2021/07/20 10:13:55;;;;;;;7.70;5.68;;;;;;;24.34;37.29;101953.28;6153532;28;20242;-62
2021/07/20 10:17:25;;;;;;;5.15;4.75;;;;;;;24.44;36.78;101948.38;6150373;28;20226;-62
2021/07/20 10:20:51;;;;;;;5.75;5.13;;;;;;;25.53;34.92;101942.75;6156398;28;20789;-62
2021/07/20 10:24:15;;;;;;;6.80;5.03;;;;;;;24.89;36.11;101953.22;6152047;28;20347;-62
2021/07/20 10:27:45;;;;;;;6.05;5.35;;;;;;;24.27;37.05;101946.53;6147238;28;20227;-62
2021/07/20 10:31:10;;;;;;;8.98;5.53;;;;;;;23.98;37.91;101946.13;6156956;28;20230;-62
2021/07/20 10:34:34;;;;;;;5.38;4.88;;;;;;;25.12;36.35;101943.16;6154818;28;20234;-62
2021/07/20 10:37:58;;;;;;;5.75;4.75;;;;;;;24.10;37.26;101936.72;6154072;28;20317;-63
2021/07/20 10:41:24;;;;;;;4.80;4.38;;;;;;;25.19;35.94;101936.56;6160610;28;20230;-53
2021/07/20 10:44:59;;;;;;;6.03;5.35;;;;;;;25.41;35.87;101930.09;6151809;28;20227;-50
2021/07/20 10:48:24;;;;;;;5.03;4.53;;;;;;;25.52;35.47;101925.06;6140529;28;20226;-53
2021/07/20 10:51:48;;;;;;;5.90;5.30;;;;;;;24.08;37.18;101931.47;6148669;28;20238;-53
2021/07/20 10:55:15;;;;;;;5.53;4.93;;;;;;;24.18;37.02;101915.94;6153714;28;20239;-52
2021/07/20 10:58:49;;;;;;;5.35;4.82;;;;;;;24.42;36.50;101924.47;6154382;28;20227;-53
2021/07/20 11:02:20;;;;;;;8.93;6.00;;;;;;;25.49;35.47;101923.44;6153095;28;20234;-50
2021/07/20 11:05:46;;;;;;;8.15;4.88;;;;;;;24.72;35.55;101919.44;6157447;28;20242;-53
2021/07/20 11:09:13;;;;;;;6.07;5.20;;;;;;;24.36;36.45;101914.16;6142964;28;20235;-52
2021/07/20 11:12:36;;;;;;;5.38;4.90;;;;;;;24.23;37.00;101913.03;6153847;28;20684;-54
2021/07/20 11:16:01;;;;;;;6.25;5.57;;;;;;;24.05;37.03;101915.66;6154736;28;20793;-50
2021/07/20 11:19:23;;;;;;;6.28;5.72;;;;;;;24.23;36.24;101907.69;6152502;28;20230;-51
2021/07/20 11:22:45;;;;;;;5.57;4.88;;;;;;;23.91;37.19;101907.47;6153772;28;20285;-51
2021/07/20 11:26:09;;;;;;;6.28;5.68;;;;;;;24.08;37.33;101903.97;6157026;28;20222;-49
2021/07/20 11:29:31;;;;;;;5.55;4.95;;;;;;;24.77;36.24;101913.88;6150394;28;20234;-51
2021/07/20 11:32:57;;;;;;;6.03;5.47;;;;;;;24.50;36.80;101910.78;6154225;28;20246;-50
2021/07/20 11:36:22;;;;;;;6.97;6.30;;;;;;;24.71;36.67;101908.88;6156523;28;20243;-49
2021/07/20 11:39:56;;;;;;;18.27;6.82;;;;;;;24.90;36.45;101919.44;6309905;23;20319;-49
2021/07/20 11:43:26;;;;;;;5.93;5.40;;;;;;;25.00;36.32;101915.34;6114561;28;20602;-52
2021/07/20 11:46:54;;;;;;;5.18;4.68;;;;;;;25.83;35.45;101912.69;6114261;28;20676;-53
2021/07/20 11:50:24;;;;;;;5.57;4.93;;;;;;;25.71;34.89;101912.41;6082407;28;20240;-51
2021/07/20 11:53:55;;;;;;;6.30;5.75;;;;;;;25.91;33.53;101897.13;6121086;28;20313;-48
2021/07/20 11:58:03;;;;;;;6.32;5.72;;;;;;;25.12;35.17;101905.84;6120250;28;20229;-51
2021/07/20 12:01:56;;;;;;;6.60;6.03;;;;;;;24.70;36.66;101909.81;6120191;28;20231;-53
2021/07/20 12:05:31;;;;;;;7.22;6.53;;;;;;;25.08;36.66;101914.94;6113710;28;20358;-51
2021/07/20 12:09:03;;;;;;;7.13;6.53;;;;;;;24.76;37.72;101910.34;6124602;28;20232;-53
2021/07/20 12:12:39;;;;;;;7.80;7.03;;;;;;;24.56;38.46;101903.41;6117596;28;20234;-51
2021/07/20 12:16:00;;;;;;;6.10;5.50;;;;;;;24.57;37.81;101912.25;6125346;28;20234;-53
2021/07/20 12:19:29;;;;;;;6.63;6.00;;;;;;;24.52;38.09;101907.16;6112793;28;20224;-51
2021/07/20 12:22:54;;;;;;;6.60;5.95;;;;;;;25.91;35.78;101897.97;6125206;28;20231;-48
2021/07/20 12:26:15;;;;;;;8.70;6.53;;;;;;;25.43;36.35;101898.88;6125588;28;20747;-51
2021/07/20 12:29:42;;;;;;;7.97;5.65;;;;;;;25.52;36.13;101901.06;6117353;28;20665;-52
2021/07/20 12:33:13;;;;;;;5.60;5.00;;;;;;;25.27;36.67;101902.38;6115527;28;20240;-49
2021/07/20 12:36:35;;;;;;;5.93;5.43;;;;;;;24.92;37.75;101902.41;6121565;28;20243;-52
2021/07/20 12:39:59;;;;;;;5.95;5.40;;;;;;;24.95;37.34;101906.72;6124772;28;20267;-54
2021/07/20 12:43:20;;;;;;;6.32;5.72;;;;;;;25.40;36.79;101901.75;6121938;28;20231;-51
2021/07/20 12:46:41;;;;;;;6.07;5.53;;;;;;;26.20;35.86;101891.94;6115122;28;20232;-54
2021/07/20 12:50:04;;;;;;;6.50;5.95;;;;;;;26.56;35.24;101894.25;6116015;28;20227;-55
2021/07/20 12:53:25;;;;;;;7.00;5.07;;;;;;;24.21;39.43;101893.59;6122521;28;20239;-51
2021/07/20 12:56:48;;;;;;;6.93;6.15;;;;;;;24.02;40.50;101893.66;6115934;28;20232;-51
2021/07/20 13:00:10;;;;;;;6.57;5.85;;;;;;;24.59;39.53;101890.88;6125285;28;20231;-50
2021/07/20 13:03:31;;;;;;;7.38;6.30;;;;;;;25.82;37.69;101886.94;6120266;28;20227;-51
2021/07/20 13:06:52;;;;;;;7.55;6.75;;;;;;;26.22;36.86;101896.22;6131510;28;20232;-52
2021/07/20 13:10:13;;;;;;;7.55;6.80;;;;;;;25.68;38.49;101891.25;6115348;28;20231;-48
2021/07/20 13:13:37;;;;;;;8.65;7.43;;;;;;;24.91;38.50;101895.38;6119078;28;20243;-53
2021/07/20 13:17:00;;;;;;;6.35;5.60;;;;;;;24.71;39.71;101890.22;6111043;28;20240;-50
2021/07/20 13:20:23;;;;;;;7.03;6.30;;;;;;;24.93;39.62;101892.63;6112873;28;20227;-53
2021/07/20 13:23:46;;;;;;;7.90;6.45;;;;;;;24.80;40.06;101899.56;6114610;28;20688;-54
2021/07/20 13:27:07;;;;;;;5.88;5.38;;;;;;;24.69;39.92;101900.09;6127689;28;20264;-50
2021/07/20 13:30:32;;;;;;;5.70;5.18;;;;;;;24.99;39.84;101897.66;6118513;28;20790;-54
2021/07/20 13:33:53;;;;;;;7.03;4.90;;;;;;;24.84;40.37;101898.44;6121370;28;20625;-54
2021/07/20 13:37:14;;;;;;;6.22;5.53;;;;;;;24.04;40.72;101897.97;6115946;28;20529;-49
2021/07/20 13:40:35;;;;;;;5.35;4.85;;;;;;;25.30;39.33;101894.22;6111902;28;20235;-49
2021/07/20 13:43:57;;;;;;;6.05;5.45;;;;;;;26.35;37.04;101887.47;6124233;28;20239;-55
2021/07/20 13:47:22;;;;;;;5.93;5.43;;;;;;;25.10;39.14;101889.91;6114894;28;20502;-49
2021/07/20 13:50:45;;;;;;;7.60;6.85;;;;;;;24.90;40.19;101888.31;6108495;28;20232;-51
2021/07/20 13:54:08;;;;;;;7.20;6.50;;;;;;;24.67;39.91;101899.31;6114681;28;20254;-52
2021/07/20 13:57:32;;;;;;;6.10;5.00;;;;;;;24.21;40.83;101890.94;6115138;28;20251;-51
2021/07/20 14:00:53;;;;;;;6.97;6.28;;;;;;;23.87;41.84;101903.25;6118466;28;20232;-53
2021/07/20 14:04:16;;;;;;;6.60;6.00;;;;;;;23.39;42.29;101910.75;6121218;28;20236;-54
2021/07/20 14:07:38;;;;;;;7.50;6.80;;;;;;;24.51;40.56;101901.91;6117883;28;20224;-51
2021/07/20 14:11:02;;;;;;;6.47;5.88;;;;;;;24.25;40.54;101889.84;6124432;28;20273;-55
2021/07/20 14:14:23;;;;;;;7.47;5.90;;;;;;;24.16;41.66;101897.38;6117559;28;20239;-62
2021/07/20 14:17:46;;;;;;;8.63;6.88;;;;;;;23.67;42.71;101898.81;6120437;28;20949;-62
2021/07/20 14:21:09;;;;;;;11.00;6.78;;;;;;;23.74;43.31;101890.47;6110284;28;20633;-52
2021/07/20 14:24:30;;;;;;;7.97;7.18;;;;;;;23.57;43.45;101893.06;6107069;28;20532;-52
2021/07/20 14:27:54;;;;;;;7.57;6.88;;;;;;;23.27;44.49;101901.53;6109854;28;20243;-49
2021/07/20 14:31:15;;;;;;;8.05;6.93;;;;;;;23.24;44.92;101906.13;6116640;28;20532;-52
2021/07/20 14:34:42;;;;;;;8.63;7.50;;;;;;;22.83;46.58;101900.81;6120284;28;20244;-50
2021/07/20 14:38:06;;;;;;;8.48;7.63;;;;;;;22.84;47.19;101892.81;6123679;28;20231;-48
2021/07/20 14:41:26;;;;;;;10.63;8.45;;;;;;;22.54;48.10;101901.13;6115404;28;20314;-52
2021/07/20 14:45:01;;;;;;;10.98;9.90;;;;;;;22.37;49.17;101899.22;6116561;28;20231;-49
2021/07/20 14:48:22;;;;;;;9.80;8.85;;;;;;;22.10;50.82;101905.59;6115359;28;20239;-49
2021/07/20 14:51:43;;;;;;;9.02;8.05;;;;;;;22.58;49.57;101901.88;6118846;28;20609;-51
2021/07/20 14:55:15;;;;;;;10.40;8.05;;;;;;;22.07;50.93;101892.47;6113860;28;20259;-54
2021/07/20 14:58:37;;;;;;;8.50;7.70;;;;;;;22.38;50.13;101900.06;6123124;28;20684;-52
2021/07/20 15:01:58;;;;;;;13.80;8.80;;;;;;;22.72;49.35;101899.50;6121303;28;20232;-52
2021/07/20 15:05:20;;;;;;;8.02;7.25;;;;;;;22.61;49.46;101892.00;6123036;28;20251;-52
2021/07/20 15:08:42;;;;;;;10.10;7.72;;;;;;;22.54;49.59;101890.50;6120620;28;20247;-54
2021/07/20 15:12:06;;;;;;;10.27;7.68;;;;;;;22.70;49.54;101905.78;6118507;28;20573;-52
2021/07/20 15:15:30;;;;;;;9.73;8.30;;;;;;;23.04;48.50;101891.09;6117787;28;20231;-52
2021/07/20 15:18:57;;;;;;;8.43;7.72;;;;;;;23.20;47.78;101889.47;6114813;28;20240;-53
2021/07/20 15:22:20;;;;;;;10.13;7.90;;;;;;;23.69;46.45;101884.53;6120486;28;20240;-50
2021/07/20 15:25:41;;;;;;;8.52;7.22;;;;;;;23.90;46.14;101884.47;6114674;28;20239;-54
2021/07/20 15:29:05;;;;;;;8.07;6.97;;;;;;;24.10;45.73;101902.13;6117787;28;20256;-48
2021/07/20 15:32:30;;;;;;;8.13;7.30;;;;;;;23.45;47.30;101893.66;6116028;28;20232;-54
2021/07/20 15:35:51;;;;;;;7.28;6.68;;;;;;;23.07;47.92;101898.91;6119689;28;20246;-50
2021/07/20 15:39:12;;;;;;;8.80;7.78;;;;;;;23.00;47.89;101887.66;6115332;28;20233;-52
2021/07/20 15:42:37;;;;;;;7.90;6.85;;;;;;;22.45;50.25;101896.22;6129265;28;20240;-49
2021/07/20 15:46:00;;;;;;;11.07;7.63;;;;;;;21.84;52.09;101899.53;6119226;28;20228;-52
2021/07/20 15:49:23;;;;;;;9.68;8.20;;;;;;;21.86;52.46;101907.44;6119199;28;20232;-54
2021/07/20 15:52:45;;;;;;;9.27;8.13;;;;;;;21.90;51.84;101909.91;6117234;28;20231;-50
2021/07/20 15:56:08;;;;;;;10.65;8.48;;;;;;;21.82;52.11;101906.69;6116181;28;20271;-54
2021/07/20 15:59:33;;;;;;;8.95;8.15;;;;;;;22.09;50.69;101903.88;6113287;28;20267;-48